TimeEDT,TemperatureF,Dew PointF,Humidity,Sea Level PressureIn,VisibilityMPH,Wind Direction,Wind SpeedMPH,Gust SpeedMPH,PrecipitationIn,Events,Conditions,WindDirDegrees,DateUTC
12:53 AM,69.1,61.0,75,30.10,10.0,East,6.9,-,N/A,,Clear,80,2013-04-24 04:53:00
1:53 AM,66.9,62.1,84,30.09,10.0,ENE,4.6,-,N/A,,Clear,70,2013-04-24 05:53:00
2:53 AM,66.0,62.1,87,30.07,10.0,ENE,5.8,-,N/A,,Clear,70,2013-04-24 06:53:00
3:53 AM,64.9,62.1,90,30.07,10.0,ENE,6.9,-,N/A,,Clear,60,2013-04-24 07:53:00
4:53 AM,64.0,62.1,93,30.07,10.0,ENE,6.9,-,N/A,,Clear,70,2013-04-24 08:53:00
6:53 AM,63.0,60.1,90,30.10,10.0,ENE,3.5,-,N/A,,Clear,70,2013-04-24 10:53:00
7:53 AM,64.0,61.0,90,30.11,10.0,ENE,5.8,-,N/A,,Clear,70,2013-04-24 11:53:00
8:53 AM,69.1,61.0,75,30.13,10.0,ENE,4.6,-,N/A,,Clear,70,2013-04-24 12:53:00
9:53 AM,75.0,61.0,62,30.14,10.0,East,6.9,-,N/A,,Clear,100,2013-04-24 13:53:00
10:53 AM,79.0,61.0,54,30.14,10.0,ESE,9.2,-,N/A,,Clear,120,2013-04-24 14:53:00
11:53 AM,81.0,61.0,50,30.13,10.0,SE,4.6,-,N/A,,Clear,140,2013-04-24 15:53:00
12:53 PM,82.9,61.0,47,30.11,10.0,East,9.2,-,N/A,,Scattered Clouds,100,2013-04-24 16:53:00
1:53 PM,84.9,61.0,44,30.09,10.0,Variable,4.6,-,N/A,,Scattered Clouds,0,2013-04-24 17:53:00
2:53 PM,86.0,59.0,40,30.07,10.0,Variable,5.8,-,N/A,,Clear,0,2013-04-24 18:53:00
3:53 PM,87.1,59.0,39,30.06,10.0,East,6.9,-,N/A,,Partly Cloudy,90,2013-04-24 19:53:00
4:53 PM,84.0,64.9,53,30.06,10.0,West,13.8,-,N/A,,Mostly Cloudy,270,2013-04-24 20:53:00
5:53 PM,82.0,64.9,56,30.06,10.0,West,8.1,-,N/A,,Clear,280,2013-04-24 21:53:00
6:53 PM,81.0,64.9,58,30.07,10.0,West,10.4,-,N/A,,Clear,280,2013-04-24 22:53:00
7:53 PM,78.1,64.9,64,30.08,10.0,NW,8.1,-,N/A,,Clear,310,2013-04-24 23:53:00
8:53 PM,75.9,64.9,69,30.10,10.0,NNW,4.6,-,N/A,,Clear,330,2013-04-25 00:53:00
9:53 PM,75.0,64.9,71,30.12,10.0,Calm,Calm,-,N/A,,Clear,0,2013-04-25 01:53:00
10:53 PM,75.0,64.9,71,30.14,10.0,North,6.9,-,N/A,,Partly Cloudy,350,2013-04-25 02:53:00
11:53 PM,75.0,64.0,69,30.14,10.0,East,6.9,-,N/A,,Overcast,100,2013-04-25 03:53:00